sensor_id;sensor_type;location;lat;lon;timestamp;pressure;altitude;pressure_sealevel;temperature;humidity
82458;BME280;72081;48.870;11.074;2023-09-30T14:06:25;98076.53;;;19.70;53.09
82458;BME280;72081;48.870;11.074;2023-09-30T14:08:51;98078.69;;;19.74;53.66
82458;BME280;72081;48.870;11.074;2023-09-30T14:11:18;98079.78;;;19.78;53.54
82458;BME280;72081;48.870;11.074;2023-09-30T14:13:43;98082.50;;;19.88;53.02
82458;BME280;72081;48.870;11.074;2023-09-30T14:16:08;98076.53;;;19.86;53.05
82458;BME280;72081;48.870;11.074;2023-09-30T14:18:33;98084.38;;;19.77;53.41
82458;BME280;72081;48.870;11.074;2023-09-30T14:21:00;98078.69;;;19.68;53.64
82458;BME280;72081;48.870;11.074;2023-09-30T14:23:26;98080.53;;;19.63;53.00
82458;BME280;72081;48.870;11.074;2023-09-30T14:25:53;98083.78;;;19.60;53.30
82458;BME280;72081;48.870;11.074;2023-09-30T14:28:19;98088.94;;;19.66;53.65
82458;BME280;72081;48.870;11.074;2023-09-30T14:30:44;98082.47;;;19.67;53.75
82458;BME280;72081;48.870;11.074;2023-09-30T14:33:10;98074.84;;;19.64;53.25
82458;BME280;72081;48.870;11.074;2023-09-30T14:35:36;98077.56;;;19.64;53.15
82458;BME280;72081;48.870;11.074;2023-09-30T14:38:04;98069.44;;;19.59;53.09
82458;BME280;72081;48.870;11.074;2023-09-30T14:40:30;98068.34;;;19.60;52.54
82458;BME280;72081;48.870;11.074;2023-09-30T14:42:55;98074.59;;;19.61;51.99
82458;BME280;72081;48.870;11.074;2023-09-30T14:45:20;98068.59;;;19.49;53.24
82458;BME280;72081;48.870;11.074;2023-09-30T14:47:46;98064.84;;;19.55;53.08
82458;BME280;72081;48.870;11.074;2023-09-30T14:50:12;98060.97;;;19.46;52.29
82458;BME280;72081;48.870;11.074;2023-09-30T14:52:37;98066.38;;;19.40;54.39
82458;BME280;72081;48.870;11.074;2023-09-30T14:55:02;98070.44;;;19.38;53.79
82458;BME280;72081;48.870;11.074;2023-09-30T14:57:27;98061.44;;;19.22;54.04
82458;BME280;72081;48.870;11.074;2023-09-30T14:59:53;98067.44;;;19.34;53.57
82458;BME280;72081;48.870;11.074;2023-09-30T15:02:18;98061.75;;;19.36;54.56
82458;BME280;72081;48.870;11.074;2023-09-30T15:04:44;98058.78;;;19.37;52.93
82458;BME280;72081;48.870;11.074;2023-09-30T15:07:47;98061.22;;;19.44;54.17
82458;BME280;72081;48.870;11.074;2023-09-30T15:10:13;98063.16;;;19.49;53.08
82458;BME280;72081;48.870;11.074;2023-09-30T15:12:38;98057.22;;;19.52;54.67
82458;BME280;72081;48.870;11.074;2023-09-30T15:15:04;98058.56;;;19.49;54.46
82458;BME280;72081;48.870;11.074;2023-09-30T15:17:29;98049.88;;;19.42;53.78
82458;BME280;72081;48.870;11.074;2023-09-30T15:19:54;98058.25;;;19.40;54.51
82458;BME280;72081;48.870;11.074;2023-09-30T15:22:20;98058.25;;;19.35;54.45
82458;BME280;72081;48.870;11.074;2023-09-30T15:24:45;98057.94;;;19.27;53.88
82458;BME280;72081;48.870;11.074;2023-09-30T15:27:10;98054.41;;;19.21;53.86
82458;BME280;72081;48.870;11.074;2023-09-30T15:29:35;98062.50;;;19.16;54.87
82458;BME280;72081;48.870;11.074;2023-09-30T15:32:03;98064.66;;;19.14;55.20
82458;BME280;72081;48.870;11.074;2023-09-30T15:34:28;98063.00;;;19.08;55.02
82458;BME280;72081;48.870;11.074;2023-09-30T15:36:53;98058.09;;;18.95;55.21
82458;BME280;72081;48.870;11.074;2023-09-30T15:39:19;98060.47;;;18.86;54.32
82458;BME280;72081;48.870;11.074;2023-09-30T15:41:44;98066.66;;;18.82;55.24
82458;BME280;72081;48.870;11.074;2023-09-30T15:44:09;98068.00;;;18.79;55.21
82458;BME280;72081;48.870;11.074;2023-09-30T15:46:35;98066.38;;;18.78;55.65
82458;BME280;72081;48.870;11.074;2023-09-30T15:49:01;98068.78;;;18.74;56.17
82458;BME280;72081;48.870;11.074;2023-09-30T15:51:26;98069.31;;;18.71;55.58
82458;BME280;72081;48.870;11.074;2023-09-30T15:53:51;98061.91;;;18.62;54.82
82458;BME280;72081;48.870;11.074;2023-09-30T15:56:17;98052.44;;;18.59;54.83
82458;BME280;72081;48.870;11.074;2023-09-30T15:58:42;98059.38;;;18.50;55.55
82458;BME280;72081;48.870;11.074;2023-09-30T16:01:11;98059.38;;;18.50;56.15
82458;BME280;72081;48.870;11.074;2023-09-30T16:03:36;98055.06;;;18.49;56.28
82458;BME280;72081;48.870;11.074;2023-09-30T16:06:04;98066.66;;;18.44;55.98
82458;BME280;72081;48.870;11.074;2023-09-30T16:08:31;98060.69;;;18.37;56.78
82458;BME280;72081;48.870;11.074;2023-09-30T16:10:56;98064.97;;;18.33;56.70
82458;BME280;72081;48.870;11.074;2023-09-30T16:13:21;98067.06;;;18.26;57.38
82458;BME280;72081;48.870;11.074;2023-09-30T16:15:47;98076.47;;;18.18;57.79
82458;BME280;72081;48.870;11.074;2023-09-30T16:18:13;98065.38;;;18.15;58.08
82458;BME280;72081;48.870;11.074;2023-09-30T16:20:38;98073.16;;;18.11;58.93
82458;BME280;72081;48.870;11.074;2023-09-30T16:23:04;98076.81;;;17.95;59.66
82458;BME280;72081;48.870;11.074;2023-09-30T16:25:29;98076.50;;;17.92;60.65
82458;BME280;72081;48.870;11.074;2023-09-30T16:27:55;98075.34;;;17.82;61.48
82458;BME280;72081;48.870;11.074;2023-09-30T16:30:20;98076.38;;;17.76;61.49
82458;BME280;72081;48.870;11.074;2023-09-30T16:32:47;98079.81;;;17.72;61.70
82458;BME280;72081;48.870;11.074;2023-09-30T16:35:12;98082.91;;;17.58;62.39
82458;BME280;72081;48.870;11.074;2023-09-30T16:37:38;98083.78;;;17.42;63.60
82458;BME280;72081;48.870;11.074;2023-09-30T16:40:05;98076.19;;;17.39;63.82
82458;BME280;72081;48.870;11.074;2023-09-30T16:42:31;98074.25;;;17.35;64.82
82458;BME280;72081;48.870;11.074;2023-09-30T16:44:58;98077.09;;;17.23;65.35
82458;BME280;72081;48.870;11.074;2023-09-30T16:47:23;98089.25;;;17.04;65.51
82458;BME280;72081;48.870;11.074;2023-09-30T16:49:48;98087.47;;;16.92;65.76
82458;BME280;72081;48.870;11.074;2023-09-30T16:52:14;98092.31;;;16.90;66.30
82458;BME280;72081;48.870;11.074;2023-09-30T16:54:40;98082.59;;;16.89;67.18
82458;BME280;72081;48.870;11.074;2023-09-30T16:57:05;98090.66;;;16.89;66.95
82458;BME280;72081;48.870;11.074;2023-09-30T16:59:31;98097.00;;;16.78;67.22
82458;BME280;72081;48.870;11.074;2023-09-30T17:01:57;98093.94;;;16.58;67.11
82458;BME280;72081;48.870;11.074;2023-09-30T17:04:23;98100.66;;;16.38;68.14
82458;BME280;72081;48.870;11.074;2023-09-30T17:06:48;98101.75;;;16.21;68.97
82458;BME280;72081;48.870;11.074;2023-09-30T17:09:14;98108.25;;;16.08;68.79
82458;BME280;72081;48.870;11.074;2023-09-30T17:11:39;98113.00;;;16.01;70.24
82458;BME280;72081;48.870;11.074;2023-09-30T17:14:04;98101.41;;;16.17;68.84
82458;BME280;72081;48.870;11.074;2023-09-30T17:16:30;98108.53;;;16.23;69.03
82458;BME280;72081;48.870;11.074;2023-09-30T17:18:55;98108.88;;;15.98;69.11
82458;BME280;72081;48.870;11.074;2023-09-30T17:21:20;98116.75;;;15.71;70.16
82458;BME280;72081;48.870;11.074;2023-09-30T17:23:46;98110.47;;;15.66;70.28
82458;BME280;72081;48.870;11.074;2023-09-30T17:26:11;98114.69;;;15.62;70.51
82458;BME280;72081;48.870;11.074;2023-09-30T17:28:36;98108.34;;;15.56;70.67
82458;BME280;72081;48.870;11.074;2023-09-30T17:31:06;98109.66;;;15.54;70.10
82458;BME280;72081;48.870;11.074;2023-09-30T17:33:32;98118.69;;;15.47;68.98
82458;BME280;72081;48.870;11.074;2023-09-30T17:36:01;98123.41;;;15.29;70.51
82458;BME280;72081;48.870;11.074;2023-09-30T17:38:27;98125.25;;;15.40;69.35
82458;BME280;72081;48.870;11.074;2023-09-30T17:40:53;98126.06;;;15.40;70.16
82458;BME280;72081;48.870;11.074;2023-09-30T17:43:19;98125.38;;;15.33;69.46
82458;BME280;72081;48.870;11.074;2023-09-30T17:45:44;98116.66;;;15.26;70.35
82458;BME280;72081;48.870;11.074;2023-09-30T17:48:10;98130.78;;;15.22;70.61
82458;BME280;72081;48.870;11.074;2023-09-30T17:50:38;98127.41;;;15.14;70.35
82458;BME280;72081;48.870;11.074;2023-09-30T17:53:04;98130.09;;;15.14;71.19
82458;BME280;72081;48.870;11.074;2023-09-30T17:56:25;98136.78;;;15.24;71.02
82458;BME280;72081;48.870;11.074;2023-09-30T17:58:52;98135.25;;;15.16;70.38
82458;BME280;72081;48.870;11.074;2023-09-30T18:01:18;98128.97;;;14.99;71.36
82458;BME280;72081;48.870;11.074;2023-09-30T18:03:50;98132.34;;;14.94;72.41
82458;BME280;72081;48.870;11.074;2023-09-30T18:06:16;98133.97;;;14.83;71.86
82458;BME280;72081;48.870;11.074;2023-09-30T18:08:43;98130.50;;;14.71;72.62
82458;BME280;72081;48.870;11.074;2023-09-30T18:11:09;98137.28;;;14.85;72.42
82458;BME280;72081;48.870;11.074;2023-09-30T18:13:36;98139.63;;;14.70;72.60
82458;BME280;72081;48.870;11.074;2023-09-30T18:16:02;98138.22;;;14.68;72.21
82458;BME280;72081;48.870;11.074;2023-09-30T18:18:28;98141.81;;;14.62;71.75
82458;BME280;72081;48.870;11.074;2023-09-30T18:20:55;98146.16;;;14.51;71.78
82458;BME280;72081;48.870;11.074;2023-09-30T18:23:20;98146.44;;;14.43;72.39
82458;BME280;72081;48.870;11.074;2023-09-30T18:25:46;98150.00;;;14.55;73.15
82458;BME280;72081;48.870;11.074;2023-09-30T18:28:12;98149.59;;;14.40;72.03
82458;BME280;72081;48.870;11.074;2023-09-30T18:30:41;98154.50;;;14.31;73.26
82458;BME280;72081;48.870;11.074;2023-09-30T18:33:08;98155.31;;;14.32;73.34
82458;BME280;72081;48.870;11.074;2023-09-30T18:35:38;98151.34;;;14.34;73.16
82458;BME280;72081;48.870;11.074;2023-09-30T18:38:03;98154.16;;;14.39;72.73
82458;BME280;72081;48.870;11.074;2023-09-30T18:40:29;98149.25;;;14.36;72.98
82458;BME280;72081;48.870;11.074;2023-09-30T18:42:55;98151.81;;;14.43;72.55
82458;BME280;72081;48.870;11.074;2023-09-30T18:45:21;98145.63;;;14.42;73.75
82458;BME280;72081;48.870;11.074;2023-09-30T18:47:46;98160.28;;;14.46;73.30
82458;BME280;72081;48.870;11.074;2023-09-30T18:50:11;98147.84;;;14.34;73.67
82458;BME280;72081;48.870;11.074;2023-09-30T18:52:37;98145.50;;;14.37;73.58
82458;BME280;72081;48.870;11.074;2023-09-30T18:55:02;98141.91;;;14.43;73.53
82458;BME280;72081;48.870;11.074;2023-09-30T18:57:27;98149.25;;;14.36;73.39
82458;BME280;72081;48.870;11.074;2023-09-30T18:59:53;98152.34;;;14.21;74.21
82458;BME280;72081;48.870;11.074;2023-09-30T19:02:19;98142.91;;;14.19;74.38
82458;BME280;72081;48.870;11.074;2023-09-30T19:04:45;98150.25;;;14.23;73.55
82458;BME280;72081;48.870;11.074;2023-09-30T19:07:10;98149.09;;;14.19;74.57
82458;BME280;72081;48.870;11.074;2023-09-30T19:09:35;98156.03;;;13.97;74.87
82458;BME280;72081;48.870;11.074;2023-09-30T19:12:01;98152.53;;;13.96;74.90
82458;BME280;72081;48.870;11.074;2023-09-30T19:14:27;98153.59;;;13.95;75.10
82458;BME280;72081;48.870;11.074;2023-09-30T19:16:53;98147.28;;;13.90;74.77
82458;BME280;72081;48.870;11.074;2023-09-30T19:19:18;98143.78;;;14.01;74.46
82458;BME280;72081;48.870;11.074;2023-09-30T19:21:44;98148.75;;;13.86;75.11
82458;BME280;72081;48.870;11.074;2023-09-30T19:24:09;98150.94;;;13.77;75.63
82458;BME280;72081;48.870;11.074;2023-09-30T19:26:35;98145.28;;;13.67;75.48
82458;BME280;72081;48.870;11.074;2023-09-30T19:29:00;98150.06;;;13.65;74.65
82458;BME280;72081;48.870;11.074;2023-09-30T19:31:27;98151.22;;;13.57;74.60
82458;BME280;72081;48.870;11.074;2023-09-30T19:33:52;98152.72;;;13.53;74.39
82458;BME280;72081;48.870;11.074;2023-09-30T19:36:18;98159.38;;;13.62;75.17
82458;BME280;72081;48.870;11.074;2023-09-30T19:38:44;98164.53;;;13.64;75.52
82458;BME280;72081;48.870;11.074;2023-09-30T19:41:16;98163.06;;;13.50;75.92
82458;BME280;72081;48.870;11.074;2023-09-30T19:43:43;98156.97;;;13.24;76.29
82458;BME280;72081;48.870;11.074;2023-09-30T19:46:08;98165.16;;;13.29;76.55
82458;BME280;72081;48.870;11.074;2023-09-30T19:48:37;98164.88;;;13.38;76.17
82458;BME280;72081;48.870;11.074;2023-09-30T19:51:02;98164.56;;;13.27;76.62
82458;BME280;72081;48.870;11.074;2023-09-30T19:53:28;98171.41;;;13.23;76.48
82458;BME280;72081;48.870;11.074;2023-09-30T19:55:53;98162.31;;;13.24;76.47
82458;BME280;72081;48.870;11.074;2023-09-30T19:58:18;98167.81;;;13.29;76.62
82458;BME280;72081;48.870;11.074;2023-09-30T20:00:44;98171.72;;;13.33;75.75
82458;BME280;72081;48.870;11.074;2023-09-30T20:03:11;98179.38;;;13.30;76.54
82458;BME280;72081;48.870;11.074;2023-09-30T20:05:36;98174.81;;;13.12;76.51
82458;BME280;72081;48.870;11.074;2023-09-30T20:08:06;98175.31;;;13.02;77.18
82458;BME280;72081;48.870;11.074;2023-09-30T20:10:32;98182.41;;;13.15;76.93
82458;BME280;72081;48.870;11.074;2023-09-30T20:12:59;98175.19;;;13.16;76.01
82458;BME280;72081;48.870;11.074;2023-09-30T20:15:24;98177.66;;;13.17;76.27
82458;BME280;72081;48.870;11.074;2023-09-30T20:17:49;98184.72;;;13.12;75.97
82458;BME280;72081;48.870;11.074;2023-09-30T20:20:16;98177.31;;;13.07;75.42
82458;BME280;72081;48.870;11.074;2023-09-30T20:22:44;98178.66;;;12.98;76.57
82458;BME280;72081;48.870;11.074;2023-09-30T20:25:10;98175.44;;;12.89;76.86
82458;BME280;72081;48.870;11.074;2023-09-30T20:27:37;98175.41;;;12.96;75.77
82458;BME280;72081;48.870;11.074;2023-09-30T20:30:03;98181.19;;;12.93;76.32
82458;BME280;72081;48.870;11.074;2023-09-30T20:32:29;98177.91;;;12.91;75.79
82458;BME280;72081;48.870;11.074;2023-09-30T20:34:54;98178.34;;;12.88;76.32
82458;BME280;72081;48.870;11.074;2023-09-30T20:37:20;98172.25;;;12.81;76.66
82458;BME280;72081;48.870;11.074;2023-09-30T20:39:45;98177.44;;;12.75;76.56
82458;BME280;72081;48.870;11.074;2023-09-30T20:42:11;98177.25;;;12.70;76.61
82458;BME280;72081;48.870;11.074;2023-09-30T20:45:11;98180.00;;;12.64;76.41
82458;BME280;72081;48.870;11.074;2023-09-30T20:47:39;98172.25;;;12.81;74.86
82458;BME280;72081;48.870;11.074;2023-09-30T20:50:04;98172.13;;;12.94;75.22
82458;BME280;72081;48.870;11.074;2023-09-30T20:52:30;98172.16;;;12.87;74.99
82458;BME280;72081;48.870;11.074;2023-09-30T20:54:56;98176.03;;;12.73;75.63
82458;BME280;72081;48.870;11.074;2023-09-30T20:57:21;98171.75;;;12.65;75.18
82458;BME280;72081;48.870;11.074;2023-09-30T20:59:46;98178.25;;;12.51;75.73
82458;BME280;72081;48.870;11.074;2023-09-30T21:02:12;98177.88;;;12.48;76.43
82458;BME280;72081;48.870;11.074;2023-09-30T21:04:37;98176.94;;;12.60;76.15
82458;BME280;72081;48.870;11.074;2023-09-30T21:07:03;98176.94;;;12.60;75.97
82458;BME280;72081;48.870;11.074;2023-09-30T21:09:31;98171.78;;;12.34;76.38
82458;BME280;72081;48.870;11.074;2023-09-30T21:11:57;98176.75;;;12.37;76.84
82458;BME280;72081;48.870;11.074;2023-09-30T21:14:23;98177.78;;;12.36;77.28
82458;BME280;72081;48.870;11.074;2023-09-30T21:16:49;98179.81;;;12.34;76.11
82458;BME280;72081;48.870;11.074;2023-09-30T21:19:14;98179.41;;;12.37;76.76
82458;BME280;72081;48.870;11.074;2023-09-30T21:21:39;98187.22;;;12.38;76.75
82458;BME280;72081;48.870;11.074;2023-09-30T21:24:05;98186.28;;;12.26;76.87
82458;BME280;72081;48.870;11.074;2023-09-30T21:26:30;98183.81;;;12.25;77.22
82458;BME280;72081;48.870;11.074;2023-09-30T21:28:56;98187.22;;;12.38;76.23
82458;BME280;72081;48.870;11.074;2023-09-30T21:31:21;98189.56;;;12.28;75.78
82458;BME280;72081;48.870;11.074;2023-09-30T21:33:48;98192.53;;;12.13;76.50
82458;BME280;72081;48.870;11.074;2023-09-30T21:36:14;98200.78;;;12.12;76.58
82458;BME280;72081;48.870;11.074;2023-09-30T21:38:40;98202.69;;;12.05;77.19
82458;BME280;72081;48.870;11.074;2023-09-30T21:41:17;98203.28;;;12.07;76.80
82458;BME280;72081;48.870;11.074;2023-09-30T21:43:44;98207.59;;;12.08;76.25
82458;BME280;72081;48.870;11.074;2023-09-30T21:46:10;98205.19;;;12.00;76.53
82458;BME280;72081;48.870;11.074;2023-09-30T21:48:37;98208.53;;;11.89;76.66
82458;BME280;72081;48.870;11.074;2023-09-30T21:51:02;98202.25;;;12.08;76.88
82458;BME280;72081;48.870;11.074;2023-09-30T21:53:28;98201.50;;;12.26;75.76
82458;BME280;72081;48.870;11.074;2023-09-30T21:55:54;98200.75;;;12.19;74.68
82458;BME280;72081;48.870;11.074;2023-09-30T21:58:19;98211.47;;;12.12;75.50
82458;BME280;72081;48.870;11.074;2023-09-30T22:00:45;98207.84;;;12.00;76.16
82458;BME280;72081;48.870;11.074;2023-09-30T22:03:13;98208.47;;;11.95;76.68
82458;BME280;72081;48.870;11.074;2023-09-30T22:05:43;98207.09;;;11.86;76.79
82458;BME280;72081;48.870;11.074;2023-09-30T22:08:19;98199.47;;;11.90;76.57
82458;BME280;72081;48.870;11.074;2023-09-30T22:10:44;98207.97;;;11.80;76.82
82458;BME280;72081;48.870;11.074;2023-09-30T22:13:10;98219.47;;;11.80;76.41
82458;BME280;72081;48.870;11.074;2023-09-30T22:15:36;98222.56;;;11.71;76.47
82458;BME280;72081;48.870;11.074;2023-09-30T22:18:01;98222.22;;;11.61;77.25
82458;BME280;72081;48.870;11.074;2023-09-30T22:20:27;98216.66;;;11.55;76.19
82458;BME280;72081;48.870;11.074;2023-09-30T22:22:53;98225.72;;;11.54;77.34
82458;BME280;72081;48.870;11.074;2023-09-30T22:25:18;98220.09;;;11.69;76.86
82458;BME280;72081;48.870;11.074;2023-09-30T22:27:47;98218.47;;;11.68;76.13
82458;BME280;72081;48.870;11.074;2023-09-30T22:30:12;98218.69;;;11.67;76.33
82458;BME280;72081;48.870;11.074;2023-09-30T22:32:38;98213.81;;;11.57;76.42
82458;BME280;72081;48.870;11.074;2023-09-30T22:35:03;98216.66;;;11.62;77.32
82458;BME280;72081;48.870;11.074;2023-09-30T22:37:29;98215.00;;;11.61;76.19
82458;BME280;72081;48.870;11.074;2023-09-30T22:39:54;98217.13;;;11.46;76.55
82458;BME280;72081;48.870;11.074;2023-09-30T22:42:20;98223.69;;;11.50;76.71
82458;BME280;72081;48.870;11.074;2023-09-30T22:44:45;98219.97;;;11.58;76.77
82458;BME280;72081;48.870;11.074;2023-09-30T22:47:11;98215.84;;;11.62;75.52
82458;BME280;72081;48.870;11.074;2023-09-30T22:49:36;98226.16;;;11.45;76.66
82458;BME280;72081;48.870;11.074;2023-09-30T22:52:01;98223.97;;;11.22;76.94
82458;BME280;72081;48.870;11.074;2023-09-30T22:54:26;98223.78;;;10.97;77.45
82458;BME280;72081;48.870;11.074;2023-09-30T22:56:53;98218.09;;;10.80;78.51
82458;BME280;72081;48.870;11.074;2023-09-30T22:59:19;98212.31;;;10.83;78.96
82458;BME280;72081;48.870;11.074;2023-09-30T23:01:45;98219.28;;;10.91;78.25
82458;BME280;72081;48.870;11.074;2023-09-30T23:04:10;98217.25;;;11.00;78.30
82458;BME280;72081;48.870;11.074;2023-09-30T23:06:36;98207.78;;;10.90;77.94
82458;BME280;72081;48.870;11.074;2023-09-30T23:09:08;98213.94;;;10.98;78.05
82458;BME280;72081;48.870;11.074;2023-09-30T23:11:35;98213.75;;;10.92;77.40
82458;BME280;72081;48.870;11.074;2023-09-30T23:14:01;98217.22;;;10.93;78.12
82458;BME280;72081;48.870;11.074;2023-09-30T23:16:28;98224.44;;;10.86;77.61
82458;BME280;72081;48.870;11.074;2023-09-30T23:18:53;98225.47;;;10.85;78.12
82458;BME280;72081;48.870;11.074;2023-09-30T23:21:21;98230.38;;;10.88;77.45
82458;BME280;72081;48.870;11.074;2023-09-30T23:23:46;98232.44;;;10.92;77.93
82458;BME280;72081;48.870;11.074;2023-09-30T23:26:13;98230.38;;;10.94;76.42
82458;BME280;72081;48.870;11.074;2023-09-30T23:28:39;98235.50;;;10.76;76.96
82458;BME280;72081;48.870;11.074;2023-09-30T23:31:05;98243.13;;;10.79;77.66
82458;BME280;72081;48.870;11.074;2023-09-30T23:33:57;98231.19;;;10.95;78.27
82458;BME280;72081;48.870;11.074;2023-09-30T23:36:23;98236.13;;;11.05;77.49
82458;BME280;72081;48.870;11.074;2023-09-30T23:38:48;98232.44;;;10.92;77.15
82458;BME280;72081;48.870;11.074;2023-09-30T23:41:15;98230.38;;;10.94;76.99
82458;BME280;72081;48.870;11.074;2023-09-30T23:43:40;98234.47;;;11.04;76.80
82458;BME280;72081;48.870;11.074;2023-09-30T23:46:05;98240.25;;;10.87;76.53
82458;BME280;72081;48.870;11.074;2023-09-30T23:48:34;98238.41;;;10.75;76.83
82458;BME280;72081;48.870;11.074;2023-09-30T23:51:00;98242.53;;;10.64;77.22
82458;BME280;72081;48.870;11.074;2023-09-30T23:53:26;98235.53;;;10.70;77.11
82458;BME280;72081;48.870;11.074;2023-09-30T23:55:53;98231.63;;;10.85;76.78
82458;BME280;72081;48.870;11.074;2023-09-30T23:58:18;98236.97;;;10.72;76.15
